Gingelom, Belgium
Current Conditions -  °F | °C
As of 12:25 AM on Tuesday 23 Dec 2014 (Local Time) from EBBE Reporting Station
Broken Clouds Broken Clouds  
Wind Chill: 52°   Ceiling: 3000
Heat Index: 52°   Visibility: 6mi
Dew Point: 46°   Wind: 20mph
Humidity: 82%   Direction: 240°WSW
Pressure: 30.12"   Gusts: NA
Location:  50.75°N, 5.13°E
Report Text: EBBE 222325Z AUTO 24017KT 9999 FEW017/// SCT023/// BKN030/// 11/08 Q1020 WHT
Loading
Personal Weather Stations






























Interactive Weather Map New forecast layout! Learn more

10-Day Weather Forecast

Advertisements
Track Severe Weather on mobile